createdAt,value
2019-04-25T00:02:24.961Z,41.20
2019-04-25T00:04:56.526Z,41.04
2019-04-25T00:07:28.133Z,40.99
2019-04-25T00:10:01.611Z,41.22
2019-04-25T00:12:33.267Z,41.16
2019-04-25T00:15:07.096Z,41.21
2019-04-25T00:17:38.734Z,41.24
2019-04-25T00:20:11.389Z,41.78
2019-04-25T00:22:47.577Z,40.93
2019-04-25T00:25:23.652Z,41.17
2019-04-25T00:27:55.140Z,41.11
2019-04-25T00:30:28.226Z,41.20
2019-04-25T00:32:59.590Z,41.35
2019-04-25T00:35:31.588Z,41.54
2019-04-25T00:38:03.094Z,41.60
2019-04-25T00:40:34.608Z,41.76
2019-04-25T00:43:06.303Z,42.28
2019-04-25T00:45:37.757Z,42.09
2019-04-25T00:48:10.228Z,42.21
2019-04-25T00:50:43.268Z,42.53
2019-04-25T00:53:14.875Z,42.48
2019-04-25T00:55:46.467Z,42.49
2019-04-25T00:58:21.494Z,42.95
2019-04-25T01:00:57.834Z,42.95
2019-04-25T01:03:34.409Z,43.27
2019-04-25T01:06:05.925Z,43.30
2019-04-25T01:08:37.299Z,43.71
2019-04-25T01:11:08.797Z,43.73
2019-04-25T01:13:40.331Z,43.80
2019-04-25T01:16:12.077Z,44.07
2019-04-25T01:18:43.705Z,44.21
2019-04-25T01:21:15.374Z,44.25
2019-04-25T01:23:47.286Z,44.13
2019-04-25T01:26:18.688Z,44.23
2019-04-25T01:28:50.138Z,44.31
2019-04-25T01:31:23.309Z,44.36
2019-04-25T01:33:56.615Z,44.49
2019-04-25T01:36:36.027Z,44.69
2019-04-25T01:39:10.140Z,44.86
2019-04-25T01:41:44.128Z,44.93
2019-04-25T01:44:20.144Z,45.17
2019-04-25T01:46:51.874Z,45.40
2019-04-25T01:49:24.225Z,45.80
2019-04-25T01:51:57.464Z,46.04
2019-04-25T01:54:28.720Z,46.36
2019-04-25T01:57:00.482Z,46.56
2019-04-25T01:59:33.709Z,46.69
2019-04-25T02:02:07.180Z,46.72
2019-04-25T02:04:38.583Z,47.03
2019-04-25T02:07:10.275Z,47.40
2019-04-25T02:09:43.457Z,47.56
2019-04-25T02:12:20.223Z,47.79
2019-04-25T02:14:51.944Z,47.93
2019-04-25T02:17:24.169Z,47.94
2019-04-25T02:19:56.703Z,48.21
2019-04-25T02:22:28.556Z,48.33
2019-04-25T02:25:00.315Z,48.73
2019-04-25T02:27:31.919Z,48.79
2019-04-25T02:30:06.795Z,49.16
2019-04-25T02:32:37.451Z,49.61
2019-04-25T02:35:09.794Z,49.73
2019-04-25T02:37:41.433Z,50.09
2019-04-25T02:40:14.243Z,50.17
2019-04-25T02:42:45.836Z,50.24
2019-04-25T02:45:37.496Z,50.49
2019-04-25T02:48:19.622Z,50.57
2019-04-25T02:51:09.061Z,50.91
2019-04-25T02:53:44.492Z,50.98
2019-04-25T02:56:30.345Z,50.76
2019-04-25T02:58:48.994Z,50.49
2019-04-25T03:01:23.530Z,50.49
2019-04-25T03:03:54.560Z,50.57
2019-04-25T03:06:26.262Z,50.84
2019-04-25T03:08:58.187Z,50.38
2019-04-25T03:11:30.903Z,49.89
2019-04-25T03:14:02.380Z,49.96
2019-04-25T03:16:34.787Z,49.07
2019-04-25T03:19:20.223Z,48.45
2019-04-25T03:21:56.125Z,48.43
2019-04-25T03:24:27.717Z,47.65
2019-04-25T03:26:59.416Z,47.59
2019-04-25T03:29:30.964Z,47.41
2019-04-25T03:32:05.094Z,46.64
2019-04-25T03:34:35.544Z,46.31
2019-04-25T03:37:07.669Z,46.99
2019-04-25T03:39:39.180Z,46.62
2019-04-25T03:42:10.641Z,45.69
2019-04-25T03:44:43.701Z,45.32
2019-04-25T03:47:15.277Z,45.91
2019-04-25T03:49:46.729Z,46.03
2019-04-25T03:52:19.205Z,45.43
2019-04-25T03:54:50.664Z,46.48
2019-04-25T03:57:23.257Z,46.03
2019-04-25T03:59:54.987Z,46.47
2019-04-25T04:02:26.441Z,47.05
2019-04-25T04:04:57.890Z,47.75
2019-04-25T04:07:29.342Z,47.32
2019-04-25T04:10:00.895Z,46.76
2019-04-25T04:12:32.347Z,47.68
2019-04-25T04:15:07.027Z,46.89
2019-04-25T04:17:40.165Z,46.91
2019-04-25T04:20:14.691Z,47.05
2019-04-25T04:22:51.133Z,46.34
2019-04-25T04:25:23.613Z,47.06
2019-04-25T04:27:55.215Z,46.92
2019-04-25T04:30:26.672Z,47.10
2019-04-25T04:32:58.096Z,47.38
2019-04-25T04:35:29.831Z,46.64
2019-04-25T04:38:01.481Z,46.81
2019-04-25T04:40:34.440Z,46.18
2019-04-25T04:43:05.939Z,45.94
2019-04-25T04:45:37.394Z,46.34
2019-04-25T04:48:08.845Z,46.58
2019-04-25T04:50:40.301Z,46.48
2019-04-25T04:53:11.676Z,46.43
2019-04-25T04:55:43.588Z,45.36
2019-04-25T04:58:16.148Z,45.48
2019-04-25T05:00:48.192Z,46.47
2019-04-25T05:03:44.121Z,45.71
2019-04-25T05:06:24.012Z,46.17
2019-04-25T05:09:03.676Z,45.42
2019-04-25T05:11:35.144Z,44.98
2019-04-25T05:14:06.669Z,44.52
2019-04-25T05:16:38.121Z,44.22
2019-04-25T05:19:09.470Z,43.39
2019-04-25T05:21:40.973Z,44.35
2019-04-25T05:24:14.587Z,43.53
2019-04-25T05:26:46.916Z,43.77
2019-04-25T05:29:21.315Z,42.85
2019-04-25T05:31:54.256Z,42.90
2019-04-25T05:34:26.021Z,42.41
2019-04-25T05:36:57.579Z,42.09
2019-04-25T05:39:28.973Z,41.50
2019-04-25T05:42:22.520Z,41.01
2019-04-25T05:44:56.748Z,41.45
2019-04-25T05:47:29.332Z,40.97
2019-04-25T05:50:00.770Z,40.96
2019-04-25T05:52:33.768Z,40.64
2019-04-25T05:55:06.818Z,40.81
2019-04-25T05:57:47.698Z,40.31
2019-04-25T06:00:13.464Z,40.02
2019-04-25T06:02:46.211Z,40.43
2019-04-25T06:05:19.071Z,40.17
2019-04-25T06:07:50.504Z,39.74
2019-04-25T06:10:39.970Z,39.93
2019-04-25T06:13:13.781Z,39.00
2019-04-25T06:15:48.071Z,39.47
2019-04-25T06:18:21.264Z,39.38
2019-04-25T06:20:55.407Z,39.42
2019-04-25T06:23:45.750Z,38.95
2019-04-25T06:26:26.692Z,38.57
2019-04-25T06:28:57.018Z,38.53
2019-04-25T06:31:26.422Z,38.70
2019-04-25T06:33:56.122Z,39.30
2019-04-25T06:36:27.379Z,39.41
2019-04-25T06:38:58.826Z,39.54
2019-04-25T06:41:30.217Z,38.93
2019-04-25T06:44:04.067Z,39.32
2019-04-25T06:46:44.117Z,38.67
2019-04-25T06:49:27.811Z,38.43
2019-04-25T06:51:59.267Z,38.35
2019-04-25T06:54:31.574Z,37.16
2019-04-25T06:57:04.529Z,37.86
2019-04-25T06:59:39.538Z,39.86
2019-04-25T07:02:09.070Z,39.54
2019-04-25T07:04:40.573Z,39.38
2019-04-25T07:07:14.423Z,39.07
2019-04-25T07:09:45.504Z,39.28
2019-04-25T07:12:17.997Z,38.01
2019-04-25T07:14:50.141Z,37.53
2019-04-25T07:17:24.084Z,37.52
2019-04-25T07:19:55.918Z,37.96
2019-04-25T07:22:27.423Z,37.95
2019-04-25T07:24:58.921Z,37.83
2019-04-25T07:27:49.277Z,37.63
2019-04-25T07:30:49.017Z,37.93
2019-04-25T07:33:18.831Z,37.00
2019-04-25T07:35:50.442Z,37.75
2019-04-25T07:38:23.699Z,36.41
2019-04-25T07:40:55.139Z,36.96
2019-04-25T07:43:27.467Z,36.16
2019-04-25T07:45:59.181Z,37.25
2019-04-25T07:48:30.369Z,35.75
2019-04-25T07:51:03.622Z,35.36
2019-04-25T07:53:35.908Z,35.02
2019-04-25T07:56:08.350Z,34.57
2019-04-25T07:58:51.667Z,34.53
2019-04-25T08:01:15.980Z,35.14
2019-04-25T08:03:47.407Z,34.81
2019-04-25T08:06:18.871Z,34.15
2019-04-25T08:08:50.284Z,34.39
2019-04-25T08:11:21.715Z,35.12
2019-04-25T08:13:57.458Z,34.24
2019-04-25T08:16:39.830Z,32.26
2019-04-25T08:19:11.424Z,33.73
2019-04-25T08:21:43.980Z,33.41
2019-04-25T08:24:16.611Z,33.92
2019-04-25T08:26:48.055Z,32.20
2019-04-25T08:29:22.938Z,32.66
2019-04-25T08:31:53.637Z,32.09
2019-04-25T08:34:26.372Z,31.92
2019-04-25T08:36:57.920Z,30.32
2019-04-25T08:39:30.291Z,31.95
2019-04-25T08:42:03.475Z,31.94
2019-04-25T08:44:35.969Z,31.77
2019-04-25T08:47:08.285Z,31.52
2019-04-25T08:49:43.646Z,31.70
2019-04-25T08:52:14.765Z,31.85
2019-04-25T08:54:54.660Z,32.74
2019-04-25T08:57:45.031Z,32.68
2019-04-25T09:00:19.193Z,32.62
2019-04-25T09:02:55.093Z,32.94
2019-04-25T09:05:28.324Z,32.52
2019-04-25T09:07:59.102Z,30.97
2019-04-25T09:10:30.282Z,30.09
2019-04-25T09:13:03.188Z,31.25
2019-04-25T09:15:37.986Z,31.37
2019-04-25T09:18:09.519Z,31.64
2019-04-25T09:20:42.890Z,31.29
2019-04-25T09:23:13.780Z,30.92
2019-04-25T09:25:46.097Z,31.13
2019-04-25T09:28:18.153Z,31.32
2019-04-25T09:30:49.720Z,30.41
2019-04-25T09:33:21.204Z,30.24
2019-04-25T09:35:54.089Z,30.32
2019-04-25T09:38:25.639Z,29.97
2019-04-25T09:40:57.101Z,30.21
2019-04-25T09:43:28.609Z,29.53
2019-04-25T09:46:07.600Z,29.43
2019-04-25T09:48:46.933Z,28.70
2019-04-25T09:51:20.153Z,28.52
2019-04-25T09:53:54.165Z,28.16
2019-04-25T09:56:36.634Z,27.76
2019-04-25T09:59:13.774Z,28.08
2019-04-25T10:01:46.919Z,27.68
2019-04-25T10:04:17.928Z,27.55
2019-04-25T10:06:49.208Z,27.08
2019-04-25T10:09:21.005Z,27.32
2019-04-25T10:11:52.550Z,27.02
2019-04-25T10:14:37.505Z,26.25
2019-04-25T10:17:08.913Z,26.85
2019-04-25T10:19:41.173Z,26.09
2019-04-25T10:22:13.639Z,25.85
2019-04-25T10:24:58.351Z,26.06
2019-04-25T10:27:19.143Z,25.87
2019-04-25T10:29:53.681Z,26.57
2019-04-25T10:32:23.754Z,26.07
2019-04-25T10:34:55.040Z,25.82
2019-04-25T10:37:26.724Z,26.05
2019-04-25T10:39:58.362Z,25.84
2019-04-25T10:42:29.766Z,26.06
2019-04-25T10:45:01.116Z,25.97
2019-04-25T10:47:33.481Z,26.08
2019-04-25T10:50:08.009Z,26.17
2019-04-25T10:52:39.971Z,26.52
2019-04-25T10:55:12.162Z,26.37
2019-04-25T10:57:45.180Z,26.35
2019-04-25T11:00:24.063Z,26.49
2019-04-25T11:02:56.569Z,26.00
2019-04-25T11:05:27.486Z,26.46
2019-04-25T11:07:58.619Z,26.30
2019-04-25T11:10:31.132Z,26.45
2019-04-25T11:13:04.062Z,26.25
2019-04-25T11:15:35.838Z,26.35
2019-04-25T11:18:07.307Z,25.96
2019-04-25T11:20:39.157Z,25.71
2019-04-25T11:23:10.702Z,25.66
2019-04-25T11:25:43.530Z,25.77
2019-04-25T11:28:15.492Z,25.94
2019-04-25T11:30:47.812Z,25.73
2019-04-25T11:36:48.521Z,25.77
2019-04-25T11:39:21.662Z,25.98
2019-04-25T11:41:55.343Z,25.58
2019-04-25T11:44:26.735Z,25.83
2019-04-25T11:46:58.847Z,25.68
2019-04-25T11:49:30.885Z,25.55
2019-04-25T11:52:03.131Z,25.59
2019-04-25T11:54:36.357Z,25.99
2019-04-25T11:57:08.007Z,26.09
2019-04-25T11:59:39.440Z,25.96
2019-04-25T12:02:13.357Z,25.83
2019-04-25T12:04:46.423Z,25.83
2019-04-25T12:07:18.311Z,25.78
2019-04-25T12:09:50.018Z,26.33
2019-04-25T12:12:23.457Z,26.12
2019-04-25T12:14:55.288Z,26.36
2019-04-25T12:17:28.392Z,26.20
2019-04-25T12:19:59.804Z,25.83
2019-04-25T12:22:31.231Z,25.67
2019-04-25T12:25:04.524Z,25.79
2019-04-25T12:27:35.351Z,26.04
2019-04-25T12:30:07.273Z,25.88
2019-04-25T12:32:38.639Z,25.92
2019-04-25T12:35:09.975Z,26.03
2019-04-25T12:37:41.423Z,26.17
2019-04-25T12:40:14.135Z,25.96
2019-04-25T12:42:46.401Z,26.68
2019-04-25T12:45:25.752Z,27.13
2019-04-25T12:47:59.370Z,27.42
2019-04-25T12:50:33.549Z,26.76
2019-04-25T12:53:05.248Z,26.92
2019-04-25T12:55:36.889Z,26.22
2019-04-25T12:58:08.263Z,26.41
2019-04-25T13:00:47.953Z,25.98
2019-04-25T13:03:13.922Z,26.08
2019-04-25T13:05:44.849Z,25.93
2019-04-25T13:08:16.351Z,26.24
2019-04-25T13:10:48.072Z,25.97
2019-04-25T13:13:20.099Z,25.59
2019-04-25T13:15:53.186Z,25.79
2019-04-25T13:18:24.768Z,26.05
2019-04-25T13:20:57.519Z,26.15
2019-04-25T13:23:28.672Z,26.50
2019-04-25T13:25:59.898Z,26.18
2019-04-25T13:28:34.128Z,26.05
2019-04-25T13:31:12.135Z,26.38
2019-04-25T13:34:01.633Z,25.83
2019-04-25T13:36:34.651Z,25.70
2019-04-25T13:39:09.369Z,25.88
2019-04-25T13:41:43.063Z,25.71
2019-04-25T13:44:14.782Z,25.70
2019-04-25T13:46:46.015Z,25.77
2019-04-25T13:49:17.453Z,25.80
2019-04-25T13:51:48.912Z,25.78
2019-04-25T13:54:20.889Z,25.87
2019-04-25T13:56:53.477Z,26.00
2019-04-25T13:59:25.639Z,25.80
2019-04-25T14:01:58.965Z,25.74
2019-04-25T14:04:31.462Z,26.00
2019-04-25T14:07:03.046Z,25.69
2019-04-25T14:09:35.827Z,25.78
2019-04-25T14:12:07.981Z,25.92
2019-04-25T14:14:39.461Z,25.96
2019-04-25T14:17:13.876Z,26.05
2019-04-25T14:19:49.823Z,26.05
2019-04-25T14:22:22.231Z,26.19
2019-04-25T14:24:54.152Z,26.17
2019-04-25T14:27:26.425Z,26.33
2019-04-25T14:29:58.082Z,26.00
2019-04-25T14:32:30.137Z,25.89
2019-04-25T14:35:03.318Z,26.07
2019-04-25T14:37:39.696Z,26.39
2019-04-25T14:40:09.589Z,26.29
2019-04-25T14:42:40.850Z,26.60
2019-04-25T14:45:12.589Z,26.55
2019-04-25T14:47:44.006Z,26.18
2019-04-25T14:50:16.665Z,26.39
2019-04-25T14:52:48.209Z,25.87
2019-04-25T14:55:25.398Z,25.67
2019-04-25T14:57:57.812Z,25.74
2019-04-25T15:00:40.015Z,26.06
2019-04-25T15:03:11.595Z,26.68
2019-04-25T15:05:43.566Z,26.75
2019-04-25T15:08:15.259Z,26.89
2019-04-25T15:10:48.444Z,27.19
2019-04-25T15:13:19.086Z,26.94
2019-04-25T15:15:50.304Z,26.77
2019-04-25T15:18:22.411Z,26.32
2019-04-25T15:20:54.982Z,26.65
2019-04-25T15:23:27.302Z,26.66
2019-04-25T15:25:59.855Z,26.55
2019-04-25T15:28:31.267Z,27.17
2019-04-25T15:31:02.664Z,27.51
2019-04-25T15:33:34.166Z,28.01
2019-04-25T15:36:16.433Z,27.77
2019-04-25T15:38:55.267Z,27.85
2019-04-25T15:41:28.431Z,27.88
2019-04-25T15:44:09.891Z,28.14
2019-04-25T15:46:44.439Z,27.78
2019-04-25T15:49:15.111Z,28.04
2019-04-25T15:51:46.428Z,27.98
2019-04-25T15:54:17.829Z,27.98
2019-04-25T15:56:49.277Z,28.51
2019-04-25T15:59:20.884Z,28.58
2019-04-25T16:01:52.360Z,28.10
2019-04-25T16:04:23.936Z,28.22
2019-04-25T16:06:55.589Z,28.44
2019-04-25T16:09:27.987Z,28.33
2019-04-25T16:11:59.440Z,28.57
2019-04-25T16:14:31.349Z,28.59
2019-04-25T16:17:03.064Z,28.73
2019-04-25T16:19:34.801Z,28.62
2019-04-25T16:22:06.472Z,28.88
2019-04-25T16:24:37.896Z,29.15
2019-04-25T16:27:09.618Z,29.04
2019-04-25T16:29:41.001Z,29.35
2019-04-25T16:32:20.401Z,29.77
2019-04-25T16:34:47.182Z,29.83
2019-04-25T16:37:18.743Z,30.12
2019-04-25T16:39:50.193Z,29.94
2019-04-25T16:42:21.701Z,30.17
2019-04-25T16:44:53.300Z,30.22
2019-04-25T16:47:26.716Z,30.53
2019-04-25T16:49:57.631Z,30.70
2019-04-25T16:52:30.418Z,30.88
2019-04-25T16:55:01.782Z,31.20
2019-04-25T16:57:34.900Z,31.41
2019-04-25T17:00:09.938Z,31.09
2019-04-25T17:02:43.080Z,30.91
2019-04-25T17:05:14.727Z,31.42
2019-04-25T17:07:46.196Z,31.37
2019-04-25T17:10:18.214Z,31.98
2019-04-25T17:12:49.753Z,31.98
2019-04-25T17:15:30.496Z,31.77
2019-04-25T17:18:09.507Z,31.82
2019-04-25T17:20:45.679Z,32.04
2019-04-25T17:23:17.496Z,32.62
2019-04-25T17:25:49.019Z,32.41
2019-04-25T17:28:21.947Z,32.48
2019-04-25T17:30:57.727Z,33.13
2019-04-25T17:33:46.854Z,33.24
2019-04-25T17:36:20.078Z,33.11
2019-04-25T17:39:01.965Z,32.66
2019-04-25T17:41:34.534Z,32.33
2019-04-25T17:44:05.834Z,32.42
2019-04-25T17:46:37.564Z,32.87
2019-04-25T17:49:09.215Z,33.11
2019-04-25T17:51:44.032Z,32.90
2019-04-25T17:54:18.306Z,32.90
2019-04-25T17:56:48.221Z,33.46
2019-04-25T17:59:21.628Z,33.77
2019-04-25T18:01:53.750Z,33.74
2019-04-25T18:04:25.418Z,34.09
2019-04-25T18:06:57.088Z,36.62
2019-04-25T18:09:28.795Z,38.04
2019-04-25T18:12:00.453Z,39.04
2019-04-25T18:14:34.049Z,39.69
2019-04-25T18:17:06.734Z,39.68
2019-04-25T18:19:45.979Z,39.34
2019-04-25T18:22:25.097Z,39.87
2019-04-25T18:24:58.168Z,40.63
2019-04-25T18:27:31.185Z,40.50
2019-04-25T18:30:02.869Z,40.33
2019-04-25T18:32:37.046Z,39.14
2019-04-25T18:35:10.218Z,39.02
2019-04-25T18:37:52.405Z,39.23
2019-04-25T18:40:31.651Z,39.06
2019-04-25T18:43:19.846Z,38.59
2019-04-25T18:45:52.969Z,38.21
2019-04-25T18:48:24.445Z,38.40
2019-04-25T18:50:55.863Z,39.41
2019-04-25T18:53:28.969Z,39.31
2019-04-25T18:56:13.855Z,38.50
2019-04-25T18:59:04.058Z,37.88
2019-04-25T19:01:50.044Z,38.60
2019-04-25T19:04:25.844Z,38.82
2019-04-25T19:06:58.381Z,38.53
2019-04-25T19:09:30.830Z,39.00
2019-04-25T19:12:02.404Z,38.78
2019-04-25T19:14:33.976Z,39.92
2019-04-25T19:17:07.421Z,39.28
2019-04-25T19:19:39.752Z,39.61
2019-04-25T19:22:11.601Z,41.19
2019-04-25T19:24:45.012Z,40.14
2019-04-25T19:27:23.512Z,40.26
2019-04-25T19:29:52.086Z,39.54
2019-04-25T19:32:23.037Z,40.31
2019-04-25T19:34:54.604Z,40.52
2019-04-25T19:37:26.276Z,42.21
2019-04-25T19:40:15.483Z,42.13
2019-04-25T19:42:48.912Z,42.59
2019-04-25T19:45:19.695Z,42.91
2019-04-25T19:47:51.518Z,42.99
2019-04-25T19:50:23.069Z,43.22
2019-04-25T19:52:54.571Z,44.38
2019-04-25T19:55:25.937Z,45.97
2019-04-25T19:57:57.564Z,44.19
2019-04-25T20:00:29.146Z,44.88
2019-04-25T20:03:14.629Z,45.55
2019-04-25T20:06:04.239Z,45.52
2019-04-25T20:08:46.652Z,45.17
2019-04-25T20:11:26.025Z,44.46
2019-04-25T20:13:57.456Z,45.37
2019-04-25T20:16:30.560Z,42.94
2019-04-25T20:19:02.157Z,44.36
2019-04-25T20:21:33.668Z,43.29
2019-04-25T20:24:06.270Z,42.47
2019-04-25T20:26:39.328Z,42.10
2019-04-25T20:29:10.869Z,41.11
2019-04-25T20:31:42.231Z,40.59
2019-04-25T20:34:14.077Z,40.84
2019-04-25T20:36:46.144Z,41.42
2019-04-25T20:39:17.537Z,41.20
2019-04-25T20:41:49.750Z,41.32
2019-04-25T20:44:21.501Z,41.80
2019-04-25T20:46:53.068Z,40.84
2019-04-25T20:49:29.359Z,41.21
2019-04-25T20:52:01.082Z,41.79
2019-04-25T20:54:32.671Z,41.70
2019-04-25T20:57:04.346Z,41.95
2019-04-25T20:59:36.024Z,42.30
2019-04-25T21:02:09.357Z,42.99
2019-04-25T21:04:42.474Z,43.49
2019-04-25T21:07:13.976Z,43.22
2019-04-25T21:09:46.637Z,42.85
2019-04-25T21:12:18.113Z,42.78
2019-04-25T21:14:58.261Z,42.98
2019-04-25T21:17:31.500Z,43.53
2019-04-25T21:20:07.594Z,43.44
2019-04-25T21:22:38.966Z,42.99
2019-04-25T21:25:10.459Z,43.12
2019-04-25T21:27:41.876Z,42.57
2019-04-25T21:30:13.353Z,42.35
2019-04-25T21:32:53.325Z,42.32
2019-04-25T21:35:25.496Z,42.80
2019-04-25T21:37:57.533Z,43.32
2019-04-25T21:40:30.797Z,42.63
2019-04-25T21:43:09.899Z,42.74
2019-04-25T21:45:41.731Z,42.74
2019-04-25T21:48:13.449Z,43.42
2019-04-25T21:50:45.154Z,42.77
2019-04-25T21:53:16.552Z,42.27
2019-04-25T21:55:48.312Z,42.64
2019-04-25T21:58:20.068Z,43.03
2019-04-25T22:00:56.682Z,42.29
2019-04-25T22:03:29.796Z,42.17
2019-04-25T22:06:01.420Z,42.28
2019-04-25T22:08:32.960Z,42.25
2019-04-25T22:11:04.571Z,42.47
2019-04-25T22:13:37.063Z,42.77
2019-04-25T22:16:08.937Z,42.97
2019-04-25T22:18:40.594Z,43.53
2019-04-25T22:21:12.452Z,42.66
2019-04-25T22:23:44.383Z,42.95
2019-04-25T22:26:15.934Z,42.93
2019-04-25T22:28:47.769Z,42.46
2019-04-25T22:31:20.817Z,42.80
2019-04-25T22:34:12.045Z,42.64
2019-04-25T22:36:44.164Z,42.91
2019-04-25T22:39:15.878Z,42.93
2019-04-25T22:41:50.646Z,42.83
2019-04-25T22:44:22.338Z,43.07
2019-04-25T22:46:53.654Z,43.34
2019-04-25T22:49:24.883Z,43.44
2019-04-25T22:51:56.807Z,43.52
2019-04-25T22:54:29.553Z,43.26
2019-04-25T22:57:01.787Z,43.50
2019-04-25T22:59:34.453Z,43.52
2019-04-25T23:02:10.733Z,43.47
2019-04-25T23:04:50.990Z,43.64
2019-04-25T23:07:22.499Z,43.95
2019-04-25T23:09:54.567Z,43.99
2019-04-25T23:12:26.292Z,44.05
2019-04-25T23:14:59.156Z,44.17
2019-04-25T23:17:30.593Z,44.22
2019-04-25T23:20:03.361Z,44.39
2019-04-25T23:22:35.333Z,44.43
2019-04-25T23:25:09.933Z,44.52
2019-04-25T23:27:43.028Z,44.56
2019-04-25T23:30:16.382Z,44.57
2019-04-25T23:32:47.771Z,44.59
2019-04-25T23:35:27.941Z,44.79
2019-04-25T23:37:52.271Z,44.86
2019-04-25T23:40:23.755Z,44.88
2019-04-25T23:42:55.549Z,45.09
2019-04-25T23:45:27.000Z,44.99
2019-04-25T23:47:58.422Z,44.88
2019-04-25T23:50:30.180Z,44.94
2019-04-25T23:53:01.551Z,45.06
2019-04-25T23:55:33.111Z,45.04
2019-04-25T23:58:04.641Z,45.05
